createdAt,value
2017-10-14T00:01:28.828Z,18.85
2017-10-14T00:03:57.999Z,18.95
2017-10-14T00:06:26.351Z,18.89
2017-10-14T00:08:54.992Z,18.93
2017-10-14T00:11:24.152Z,18.57
2017-10-14T00:13:53.176Z,18.78
2017-10-14T00:16:22.046Z,18.72
2017-10-14T00:18:51.649Z,18.76
2017-10-14T00:21:20.877Z,18.68
2017-10-14T00:23:49.954Z,18.58
2017-10-14T00:26:19.029Z,18.50
2017-10-14T00:28:48.616Z,18.51
2017-10-14T00:31:17.196Z,18.63
2017-10-14T00:33:47.370Z,18.59
2017-10-14T00:36:15.719Z,18.42
2017-10-14T00:38:44.918Z,18.44
2017-10-14T00:41:17.118Z,18.29
2017-10-14T00:43:45.995Z,18.38
2017-10-14T00:46:14.366Z,18.72
2017-10-14T00:48:42.738Z,18.79
2017-10-14T00:51:12.199Z,18.98
2017-10-14T00:53:42.162Z,19.04
2017-10-14T00:56:11.908Z,19.05
2017-10-14T00:58:40.371Z,19.11
2017-10-14T01:01:09.611Z,18.96
2017-10-14T01:03:38.809Z,18.92
2017-10-14T01:06:07.951Z,18.96
2017-10-14T01:08:37.046Z,18.99
2017-10-14T01:11:06.169Z,18.94
2017-10-14T01:13:35.138Z,19.10
2017-10-14T01:16:04.936Z,18.95
2017-10-14T01:18:33.321Z,18.95
2017-10-14T01:21:01.672Z,18.88
2017-10-14T01:23:30.972Z,19.01
2017-10-14T01:25:59.556Z,18.96
2017-10-14T01:28:28.731Z,18.95
2017-10-14T01:30:57.712Z,18.86
2017-10-14T01:33:27.409Z,19.10
2017-10-14T01:35:55.763Z,19.14
2017-10-14T01:38:24.105Z,18.93
2017-10-14T01:40:53.133Z,18.91
2017-10-14T01:43:21.483Z,18.64
2017-10-14T01:45:49.814Z,18.67
2017-10-14T01:48:18.913Z,18.75
2017-10-14T01:50:47.294Z,18.44
2017-10-14T01:53:15.638Z,18.70
2017-10-14T01:55:44.331Z,18.67
2017-10-14T01:58:12.669Z,18.82
2017-10-14T02:00:41.013Z,18.81
2017-10-14T02:03:09.703Z,18.79
2017-10-14T02:05:38.070Z,18.82
2017-10-14T02:08:07.413Z,18.81
2017-10-14T02:10:35.871Z,18.61
2017-10-14T02:13:05.157Z,18.66
2017-10-14T02:15:33.520Z,18.86
2017-10-14T02:18:02.786Z,18.57
2017-10-14T02:20:32.342Z,18.73
2017-10-14T02:23:01.513Z,18.77
2017-10-14T02:25:30.685Z,19.03
2017-10-14T02:27:59.979Z,18.77
2017-10-14T02:30:28.859Z,19.04
2017-10-14T02:32:57.960Z,18.94
2017-10-14T02:35:27.254Z,18.88
2017-10-14T02:37:55.601Z,18.64
2017-10-14T02:40:24.953Z,18.75
2017-10-14T02:42:53.305Z,18.78
2017-10-14T02:45:21.685Z,18.70
2017-10-14T02:47:50.056Z,18.84
2017-10-14T02:50:19.249Z,18.72
2017-10-14T02:52:49.236Z,18.86
2017-10-14T02:55:17.710Z,19.13
2017-10-14T02:57:46.838Z,19.02
2017-10-14T03:00:16.954Z,18.84
2017-10-14T03:02:46.232Z,18.76
2017-10-14T03:05:16.317Z,19.02
2017-10-14T03:07:45.785Z,19.02
2017-10-14T03:10:15.635Z,19.09
2017-10-14T03:12:44.018Z,19.19
2017-10-14T03:15:13.088Z,19.06
2017-10-14T03:17:42.838Z,18.94
2017-10-14T03:20:11.228Z,19.10
2017-10-14T03:22:39.621Z,19.23
2017-10-14T03:25:10.580Z,19.31
2017-10-14T03:27:39.781Z,19.07
2017-10-14T03:30:09.483Z,19.02
2017-10-14T03:32:39.442Z,19.30
2017-10-14T03:35:09.381Z,19.40
2017-10-14T03:37:39.936Z,19.38
2017-10-14T03:40:09.392Z,19.29
2017-10-14T03:42:37.725Z,19.28
2017-10-14T03:45:06.070Z,19.29
2017-10-14T03:47:36.724Z,19.28
2017-10-14T03:50:05.108Z,19.35
2017-10-14T03:52:33.470Z,19.12
2017-10-14T03:55:02.394Z,19.36
2017-10-14T03:57:31.341Z,19.23
2017-10-14T04:00:00.887Z,19.16
2017-10-14T04:02:30.277Z,18.96
2017-10-14T04:04:59.397Z,19.08
2017-10-14T04:07:27.855Z,19.12
2017-10-14T04:09:57.342Z,19.25
2017-10-14T04:12:28.418Z,19.20
2017-10-14T04:14:58.158Z,19.16
2017-10-14T04:17:26.580Z,19.01
2017-10-14T04:19:56.042Z,19.07
2017-10-14T04:22:25.307Z,19.08
2017-10-14T04:24:54.071Z,19.16
2017-10-14T04:27:22.443Z,19.20
2017-10-14T04:29:51.492Z,19.29
2017-10-14T04:32:22.166Z,19.52
2017-10-14T04:34:50.518Z,19.39
2017-10-14T04:37:20.559Z,19.63
2017-10-14T04:39:50.239Z,19.46
2017-10-14T04:42:20.592Z,19.27
2017-10-14T04:44:49.039Z,19.33
2017-10-14T04:47:19.532Z,19.27
2017-10-14T04:49:48.860Z,19.01
2017-10-14T04:52:18.499Z,18.89
2017-10-14T04:54:47.795Z,19.00
2017-10-14T04:57:17.037Z,19.28
2017-10-14T04:59:46.163Z,19.22
2017-10-14T05:02:15.498Z,19.18
2017-10-14T05:04:44.272Z,19.37
2017-10-14T05:07:13.299Z,19.34
2017-10-14T05:09:42.796Z,19.37
2017-10-14T05:12:11.483Z,19.41
2017-10-14T05:14:40.526Z,19.39
2017-10-14T05:17:11.066Z,19.37
2017-10-14T05:19:40.807Z,19.35
2017-10-14T05:22:10.549Z,19.22
2017-10-14T05:24:40.561Z,19.26
2017-10-14T05:27:08.899Z,19.30
2017-10-14T05:29:38.515Z,19.33
2017-10-14T05:32:10.082Z,19.29
2017-10-14T05:34:39.953Z,19.24
2017-10-14T05:37:09.006Z,19.18
2017-10-14T05:39:37.395Z,19.43
2017-10-14T05:42:06.217Z,19.41
2017-10-14T05:44:34.587Z,19.34
2017-10-14T05:47:05.863Z,19.29
2017-10-14T05:49:34.225Z,19.34
2017-10-14T05:52:04.362Z,19.17
2017-10-14T05:54:36.232Z,19.13
2017-10-14T05:57:04.655Z,18.91
2017-10-14T05:59:33.425Z,19.07
2017-10-14T06:02:01.853Z,19.12
2017-10-14T06:04:30.910Z,19.22
2017-10-14T06:06:59.519Z,19.19
2017-10-14T06:09:27.897Z,19.06
2017-10-14T06:11:57.066Z,19.35
2017-10-14T06:14:26.599Z,19.20
2017-10-14T06:16:55.205Z,19.29
2017-10-14T06:19:24.182Z,19.30
2017-10-14T06:21:54.036Z,19.46
2017-10-14T06:24:22.433Z,19.34
2017-10-14T06:26:51.639Z,19.51
2017-10-14T06:29:21.656Z,19.25
2017-10-14T06:31:50.648Z,19.40
2017-10-14T06:34:19.011Z,19.34
2017-10-14T06:36:47.352Z,19.28
2017-10-14T06:39:16.474Z,19.34
2017-10-14T06:41:45.906Z,19.38
2017-10-14T06:44:14.870Z,19.55
2017-10-14T06:46:43.837Z,19.38
2017-10-14T06:49:12.190Z,19.31
2017-10-14T06:51:40.794Z,19.43
2017-10-14T06:54:09.945Z,19.67
2017-10-14T06:56:39.064Z,19.69
2017-10-14T06:59:07.386Z,19.63
2017-10-14T07:01:35.922Z,19.34
2017-10-14T07:04:04.349Z,19.45
2017-10-14T07:06:32.697Z,19.56
2017-10-14T07:09:02.868Z,19.34
2017-10-14T07:11:31.984Z,19.44
2017-10-14T07:14:00.329Z,19.55
2017-10-14T07:16:30.183Z,19.39
2017-10-14T07:18:59.316Z,19.30
2017-10-14T07:21:27.932Z,19.44
2017-10-14T07:23:57.543Z,19.75
2017-10-14T07:26:26.157Z,19.58
2017-10-14T07:28:54.522Z,19.60
2017-10-14T07:31:24.387Z,19.43
2017-10-14T07:33:52.738Z,19.40
2017-10-14T07:36:21.067Z,19.53
2017-10-14T07:38:50.207Z,19.51
2017-10-14T07:41:19.399Z,19.50
2017-10-14T07:43:47.761Z,19.58
2017-10-14T07:46:16.327Z,19.60
2017-10-14T07:48:45.045Z,19.65
2017-10-14T07:51:14.350Z,19.68
2017-10-14T07:53:43.407Z,19.69
2017-10-14T07:56:11.787Z,19.68
2017-10-14T07:58:41.032Z,19.90
2017-10-14T08:01:09.724Z,19.82
2017-10-14T08:03:38.086Z,19.83
2017-10-14T08:06:07.571Z,19.66
2017-10-14T08:08:36.065Z,19.59
2017-10-14T08:11:04.409Z,19.65
2017-10-14T08:13:32.751Z,19.98
2017-10-14T08:16:01.813Z,20.11
2017-10-14T08:18:30.979Z,20.04
2017-10-14T08:21:00.583Z,20.06
2017-10-14T08:23:29.845Z,19.98
2017-10-14T08:25:59.117Z,19.66
2017-10-14T08:28:27.462Z,19.67
2017-10-14T08:30:56.387Z,19.86
2017-10-14T08:33:25.481Z,20.07
2017-10-14T08:35:55.326Z,20.08
2017-10-14T08:38:23.725Z,20.30
2017-10-14T08:40:54.738Z,20.39
2017-10-14T08:43:24.053Z,20.46
2017-10-14T08:45:52.487Z,20.30
2017-10-14T08:48:22.559Z,20.39
2017-10-14T08:50:51.539Z,20.04
2017-10-14T08:53:21.143Z,20.25
2017-10-14T08:55:51.259Z,20.28
2017-10-14T08:58:22.156Z,20.04
2017-10-14T09:00:51.572Z,20.05
2017-10-14T09:03:21.360Z,20.04
2017-10-14T09:05:49.998Z,20.34
2017-10-14T09:08:18.352Z,20.68
2017-10-14T09:10:46.831Z,20.77
2017-10-14T09:13:16.366Z,20.73
2017-10-14T09:15:44.729Z,20.94
2017-10-14T09:18:13.913Z,21.22
2017-10-14T09:20:44.310Z,20.70
2017-10-14T09:23:12.817Z,20.68
2017-10-14T09:25:42.063Z,21.15
2017-10-14T09:28:11.249Z,20.86
2017-10-14T09:30:39.597Z,20.99
2017-10-14T09:33:09.466Z,20.80
2017-10-14T09:35:37.953Z,20.80
2017-10-14T09:38:06.337Z,20.67
2017-10-14T09:40:35.677Z,20.73
2017-10-14T09:43:04.831Z,20.67
2017-10-14T09:45:33.208Z,20.32
2017-10-14T09:48:01.568Z,20.33
2017-10-14T09:50:30.890Z,20.59
2017-10-14T09:52:59.232Z,20.51
2017-10-14T09:55:30.100Z,20.51
2017-10-14T09:57:59.314Z,20.63
2017-10-14T10:00:27.679Z,20.77
2017-10-14T10:02:56.016Z,21.23
2017-10-14T10:05:24.633Z,21.11
2017-10-14T10:07:53.901Z,21.13
2017-10-14T10:10:22.499Z,21.43
2017-10-14T10:12:51.650Z,21.48
2017-10-14T10:15:20.299Z,21.57
2017-10-14T10:17:48.659Z,21.59
2017-10-14T10:20:20.400Z,21.47
2017-10-14T10:22:50.521Z,21.43
2017-10-14T10:25:19.723Z,21.20
2017-10-14T10:27:48.881Z,22.14
2017-10-14T10:30:19.776Z,23.09
2017-10-14T10:32:49.146Z,22.88
2017-10-14T10:35:18.852Z,22.60
2017-10-14T10:37:50.478Z,22.42
2017-10-14T10:40:19.067Z,21.86
2017-10-14T10:42:48.437Z,21.94
2017-10-14T10:45:17.708Z,21.95
2017-10-14T10:47:46.835Z,21.88
2017-10-14T10:50:15.168Z,21.80
2017-10-14T10:52:45.375Z,21.68
2017-10-14T10:55:14.743Z,21.76
2017-10-14T10:57:43.112Z,21.83
2017-10-14T11:00:12.129Z,21.56
2017-10-14T11:02:41.763Z,21.60
2017-10-14T11:05:10.117Z,21.37
2017-10-14T11:07:39.679Z,21.27
2017-10-14T11:10:08.046Z,21.29
2017-10-14T11:12:38.172Z,21.24
2017-10-14T11:15:10.476Z,21.08
2017-10-14T11:17:39.392Z,21.12
2017-10-14T11:20:08.629Z,21.01
2017-10-14T11:22:41.823Z,20.86
2017-10-14T11:25:11.210Z,20.49
2017-10-14T11:27:40.491Z,20.55
2017-10-14T11:30:09.721Z,20.77
2017-10-14T11:32:38.109Z,21.04
2017-10-14T11:35:08.007Z,20.87
2017-10-14T11:37:36.384Z,20.97
2017-10-14T11:40:06.269Z,20.87
2017-10-14T11:42:35.292Z,21.06
2017-10-14T11:45:04.418Z,21.43
2017-10-14T11:47:32.805Z,21.30
2017-10-14T11:50:01.465Z,21.51
2017-10-14T11:52:29.841Z,21.71
2017-10-14T11:54:59.418Z,21.82
2017-10-14T11:57:28.635Z,21.75
2017-10-14T11:59:57.915Z,21.30
2017-10-14T12:02:27.070Z,21.01
2017-10-14T12:04:57.360Z,21.22
2017-10-14T12:07:27.363Z,21.27
2017-10-14T12:09:56.271Z,21.17
2017-10-14T12:12:25.483Z,21.11
2017-10-14T12:14:54.632Z,21.35
2017-10-14T12:17:24.689Z,21.53
2017-10-14T12:19:54.050Z,21.16
2017-10-14T12:22:23.083Z,21.20
2017-10-14T12:24:52.756Z,21.12
2017-10-14T12:27:21.230Z,21.33
2017-10-14T12:29:50.595Z,21.03
2017-10-14T12:32:21.194Z,21.41
2017-10-14T12:34:51.426Z,21.56
2017-10-14T12:37:19.870Z,21.37
2017-10-14T12:39:49.002Z,21.56
2017-10-14T12:42:17.877Z,21.12
2017-10-14T12:44:46.955Z,21.00
2017-10-14T12:47:17.154Z,21.23
2017-10-14T12:49:45.733Z,20.99
2017-10-14T12:52:15.345Z,21.13
2017-10-14T12:54:43.697Z,21.13
2017-10-14T12:57:12.066Z,20.92
2017-10-14T12:59:40.837Z,20.89
2017-10-14T13:02:09.227Z,20.71
2017-10-14T13:04:38.157Z,20.70
2017-10-14T13:07:06.513Z,21.05
2017-10-14T13:09:36.337Z,21.23
2017-10-14T13:12:06.266Z,20.83
2017-10-14T13:14:35.298Z,20.97
2017-10-14T13:17:04.076Z,21.19
2017-10-14T13:19:33.148Z,20.94
2017-10-14T13:22:02.212Z,21.02
2017-10-14T13:24:31.578Z,21.19
2017-10-14T13:27:00.476Z,21.11
2017-10-14T13:29:29.076Z,20.90
2017-10-14T13:31:58.491Z,20.95
2017-10-14T13:34:27.647Z,20.90
2017-10-14T13:36:56.006Z,20.76
2017-10-14T13:39:24.373Z,20.97
2017-10-14T13:41:52.770Z,21.09
2017-10-14T13:44:21.690Z,21.17
2017-10-14T13:46:50.054Z,21.28
2017-10-14T13:49:18.437Z,20.70
2017-10-14T13:51:46.790Z,20.56
2017-10-14T13:54:15.963Z,20.60
2017-10-14T13:56:46.434Z,20.56
2017-10-14T13:59:14.828Z,20.90
2017-10-14T14:01:43.170Z,21.09
2017-10-14T14:04:12.155Z,21.32
2017-10-14T14:06:41.409Z,21.13
2017-10-14T14:09:10.795Z,21.13
2017-10-14T14:11:39.209Z,20.88
2017-10-14T14:14:09.034Z,20.87
2017-10-14T14:16:38.286Z,20.65
2017-10-14T14:19:08.500Z,20.82
2017-10-14T14:21:37.665Z,21.09
2017-10-14T14:24:06.934Z,20.92
2017-10-14T14:26:36.884Z,22.05
2017-10-14T14:29:06.728Z,22.80
2017-10-14T14:31:35.081Z,22.84
2017-10-14T14:34:03.462Z,22.86
2017-10-14T14:36:32.556Z,22.83
2017-10-14T14:39:01.466Z,22.62
2017-10-14T14:41:31.791Z,23.14
2017-10-14T14:44:01.510Z,22.91
2017-10-14T14:46:31.372Z,23.03
2017-10-14T14:49:00.372Z,23.04
2017-10-14T14:51:28.753Z,22.83
2017-10-14T14:53:57.116Z,22.49
2017-10-14T14:56:25.492Z,22.39
2017-10-14T14:58:54.610Z,22.48
2017-10-14T15:01:23.753Z,22.12
2017-10-14T15:03:53.238Z,22.33
2017-10-14T15:06:21.602Z,22.27
2017-10-14T15:08:51.471Z,22.06
2017-10-14T15:11:19.852Z,22.41
2017-10-14T15:13:48.213Z,22.90
2017-10-14T15:16:16.599Z,23.52
2017-10-14T15:18:45.408Z,23.75
2017-10-14T15:21:14.028Z,23.68
2017-10-14T15:23:42.416Z,23.43
2017-10-14T15:26:11.920Z,23.08
2017-10-14T15:28:41.307Z,22.37
2017-10-14T15:31:11.264Z,22.18
2017-10-14T15:33:40.461Z,22.14
2017-10-14T15:36:08.803Z,22.06
2017-10-14T15:38:39.435Z,21.92
2017-10-14T15:41:08.620Z,21.86
2017-10-14T15:43:36.987Z,21.63
2017-10-14T15:46:06.106Z,21.44
2017-10-14T15:48:36.498Z,21.46
2017-10-14T15:51:06.447Z,21.43
2017-10-14T15:53:35.529Z,21.48
2017-10-14T15:56:04.707Z,21.17
2017-10-14T15:58:33.304Z,21.00
2017-10-14T16:01:01.668Z,20.69
2017-10-14T16:03:30.120Z,20.84
2017-10-14T16:05:59.379Z,20.81
2017-10-14T16:08:28.864Z,20.70
2017-10-14T16:10:57.202Z,20.71
2017-10-14T16:13:25.548Z,20.62
2017-10-14T16:15:54.719Z,20.76
2017-10-14T16:18:23.767Z,20.68
2017-10-14T16:20:53.117Z,20.78
2017-10-14T16:23:22.205Z,20.65
2017-10-14T16:25:50.567Z,20.72
2017-10-14T16:28:18.929Z,20.78
2017-10-14T16:30:47.470Z,20.71
2017-10-14T16:33:15.930Z,20.67
2017-10-14T16:35:44.300Z,20.75
2017-10-14T16:38:12.687Z,20.77
2017-10-14T16:40:42.660Z,20.75
2017-10-14T16:43:12.949Z,20.78
2017-10-14T16:45:41.306Z,20.64
2017-10-14T16:48:15.497Z,20.62
2017-10-14T16:50:44.690Z,20.69
2017-10-14T16:53:13.847Z,20.62
2017-10-14T16:55:42.438Z,20.59
2017-10-14T16:58:11.771Z,20.48
2017-10-14T17:00:40.937Z,20.37
2017-10-14T17:03:09.315Z,20.40
2017-10-14T17:05:39.190Z,20.31
2017-10-14T17:08:08.549Z,20.31
2017-10-14T17:10:37.771Z,20.31
2017-10-14T17:13:06.875Z,20.32
2017-10-14T17:15:36.261Z,20.33
2017-10-14T17:18:05.776Z,20.12
2017-10-14T17:20:34.354Z,19.98
2017-10-14T17:23:02.709Z,20.14
2017-10-14T17:25:31.110Z,20.19
2017-10-14T17:28:00.947Z,20.11
2017-10-14T17:30:29.478Z,20.10
2017-10-14T17:33:00.644Z,20.07
2017-10-14T17:35:29.958Z,20.10
2017-10-14T17:37:58.372Z,20.04
2017-10-14T17:40:27.529Z,19.92
2017-10-14T17:42:56.039Z,19.82
2017-10-14T17:45:26.103Z,19.78
2017-10-14T17:47:55.811Z,19.78
2017-10-14T17:50:24.162Z,19.60
2017-10-14T17:52:52.821Z,19.47
2017-10-14T17:55:21.487Z,19.35
2017-10-14T17:57:50.855Z,19.17
2017-10-14T18:00:19.588Z,19.08
2017-10-14T18:02:48.374Z,19.00
2017-10-14T18:05:17.417Z,18.84
2017-10-14T18:07:46.631Z,18.72
2017-10-14T18:10:15.022Z,18.94
2017-10-14T18:12:45.103Z,18.68
2017-10-14T18:15:13.704Z,18.69
2017-10-14T18:17:43.098Z,18.65
2017-10-14T18:20:12.024Z,18.66
2017-10-14T18:22:40.646Z,18.42
2017-10-14T18:25:09.022Z,18.73
2017-10-14T18:27:37.407Z,18.73
2017-10-14T18:30:06.985Z,18.79
2017-10-14T18:32:35.661Z,18.80
2017-10-14T18:35:04.960Z,18.89
2017-10-14T18:37:34.084Z,18.87
2017-10-14T18:40:04.335Z,18.95
2017-10-14T18:42:32.929Z,18.71
2017-10-14T18:45:03.070Z,18.58
2017-10-14T18:47:31.450Z,18.70
2017-10-14T18:49:59.806Z,18.76
2017-10-14T18:52:28.161Z,18.81
2017-10-14T18:54:57.793Z,18.73
2017-10-14T18:57:26.886Z,18.74
2017-10-14T18:59:55.558Z,18.81
2017-10-14T19:02:23.990Z,18.82
2017-10-14T19:04:53.929Z,18.80
2017-10-14T19:07:22.324Z,18.74
2017-10-14T19:09:52.200Z,18.80
2017-10-14T19:12:20.852Z,18.78
2017-10-14T19:14:49.250Z,18.86
2017-10-14T19:17:17.642Z,18.90
2017-10-14T19:19:46.822Z,18.89
2017-10-14T19:22:16.578Z,18.60
2017-10-14T19:24:45.982Z,18.78
2017-10-14T19:27:14.345Z,18.84
2017-10-14T19:29:44.446Z,18.91
2017-10-14T19:32:14.508Z,19.01
2017-10-14T19:34:43.010Z,19.00
2017-10-14T19:37:12.079Z,18.93
2017-10-14T19:39:40.484Z,18.97
2017-10-14T19:42:08.906Z,18.80
2017-10-14T19:44:37.318Z,18.60
2017-10-14T19:47:06.741Z,18.33
2017-10-14T19:49:35.113Z,18.36
2017-10-14T19:52:04.923Z,18.42
2017-10-14T19:54:34.433Z,18.48
2017-10-14T19:57:03.726Z,18.52
2017-10-14T19:59:32.094Z,18.41
2017-10-14T20:02:01.666Z,18.35
2017-10-14T20:04:32.157Z,18.24
2017-10-14T20:07:00.530Z,18.24
2017-10-14T20:09:29.216Z,18.07
2017-10-14T20:11:57.590Z,17.94
2017-10-14T20:14:25.945Z,17.95
2017-10-14T20:16:54.657Z,17.84
2017-10-14T20:19:23.011Z,17.52
2017-10-14T20:21:52.946Z,17.40
2017-10-14T20:24:23.116Z,17.23
2017-10-14T20:26:52.708Z,17.38
2017-10-14T20:29:21.828Z,17.34
2017-10-14T20:31:51.614Z,17.25
2017-10-14T20:34:20.766Z,17.21
2017-10-14T20:36:50.695Z,16.99
2017-10-14T20:39:19.364Z,17.10
2017-10-14T20:41:47.745Z,17.16
2017-10-14T20:44:18.286Z,17.38
2017-10-14T20:46:48.613Z,17.32
2017-10-14T20:49:17.518Z,17.37
2017-10-14T20:51:46.699Z,17.34
2017-10-14T20:54:16.047Z,17.45
2017-10-14T20:56:44.403Z,17.47
2017-10-14T20:59:13.047Z,17.53
2017-10-14T21:01:43.145Z,17.55
2017-10-14T21:04:11.524Z,17.64
2017-10-14T21:06:40.678Z,17.59
2017-10-14T21:09:09.034Z,17.60
2017-10-14T21:11:38.517Z,17.59
2017-10-14T21:14:07.056Z,17.43
2017-10-14T21:16:36.867Z,17.36
2017-10-14T21:19:05.675Z,17.32
2017-10-14T21:21:35.004Z,17.21
2017-10-14T21:24:03.385Z,17.15
2017-10-14T21:26:32.569Z,17.09
2017-10-14T21:29:01.803Z,16.99
2017-10-14T21:31:31.791Z,16.94
2017-10-14T21:34:00.979Z,16.70
2017-10-14T21:36:32.197Z,16.65
2017-10-14T21:39:00.742Z,16.49
2017-10-14T21:41:30.584Z,16.47
2017-10-14T21:44:00.896Z,16.35
2017-10-14T21:46:31.671Z,16.19
2017-10-14T21:49:00.059Z,16.20
2017-10-14T21:51:28.429Z,15.88
2017-10-14T21:53:58.324Z,15.90
2017-10-14T21:56:27.242Z,16.09
2017-10-14T21:58:55.623Z,16.19
2017-10-14T22:01:25.102Z,16.02
2017-10-14T22:03:53.468Z,15.94
2017-10-14T22:06:22.489Z,15.90
2017-10-14T22:08:50.906Z,15.82
2017-10-14T22:11:20.203Z,15.68
2017-10-14T22:13:50.147Z,15.78
2017-10-14T22:16:19.830Z,15.78
2017-10-14T22:18:48.855Z,15.88
2017-10-14T22:21:19.544Z,15.96
2017-10-14T22:23:48.810Z,16.14
2017-10-14T22:26:17.616Z,16.16
2017-10-14T22:28:47.256Z,16.24
2017-10-14T22:31:15.993Z,16.30
2017-10-14T22:33:44.802Z,16.24
2017-10-14T22:36:13.349Z,16.28
2017-10-14T22:38:42.418Z,16.36
2017-10-14T22:41:11.551Z,16.29
2017-10-14T22:43:40.219Z,16.23
2017-10-14T22:46:09.410Z,16.18
2017-10-14T22:48:39.817Z,16.18
2017-10-14T22:51:09.352Z,16.25
2017-10-14T22:53:38.334Z,16.18
2017-10-14T22:56:07.359Z,16.17
2017-10-14T22:58:35.734Z,16.12
2017-10-14T23:01:04.184Z,16.03
2017-10-14T23:03:32.526Z,15.76
2017-10-14T23:06:00.983Z,15.60
2017-10-14T23:08:30.218Z,15.61
2017-10-14T23:10:59.373Z,15.47
2017-10-14T23:13:28.649Z,15.45
2017-10-14T23:15:57.039Z,15.40
2017-10-14T23:18:26.163Z,15.58
2017-10-14T23:20:55.531Z,15.42
2017-10-14T23:23:24.001Z,15.60
2017-10-14T23:25:53.154Z,15.59
2017-10-14T23:28:21.498Z,15.64
2017-10-14T23:30:49.951Z,15.67
2017-10-14T23:33:18.302Z,15.72
2017-10-14T23:35:46.656Z,15.74
2017-10-14T23:38:15.033Z,15.87
2017-10-14T23:40:43.378Z,16.07
2017-10-14T23:43:11.734Z,16.12
2017-10-14T23:45:40.131Z,15.79
2017-10-14T23:48:09.281Z,15.55
2017-10-14T23:50:38.322Z,15.65
2017-10-14T23:53:07.628Z,15.73
2017-10-14T23:55:36.752Z,15.78
2017-10-14T23:58:05.113Z,15.77
